createdAt,value
2017-12-08T00:00:18.984Z,35.70
2017-12-08T00:01:18.982Z,34.50
2017-12-08T00:02:18.957Z,35.20
2017-12-08T00:03:18.953Z,33.30
2017-12-08T00:04:18.923Z,36.20
2017-12-08T00:05:18.971Z,43.50
2017-12-08T00:06:18.903Z,35.50
2017-12-08T00:07:18.886Z,36.80
2017-12-08T00:08:18.867Z,35.80
2017-12-08T00:09:18.853Z,38.10
2017-12-08T00:10:18.841Z,44.30
2017-12-08T00:11:18.877Z,31.00
2017-12-08T00:12:18.809Z,34.40
2017-12-08T00:13:18.790Z,35.10
2017-12-08T00:14:18.779Z,36.70
2017-12-08T00:15:18.761Z,35.90
2017-12-08T00:16:18.743Z,40.20
2017-12-08T00:17:18.792Z,37.40
2017-12-08T00:18:18.719Z,37.20
2017-12-08T00:19:18.702Z,39.40
2017-12-08T00:20:18.689Z,33.70
2017-12-08T00:21:18.671Z,36.40
2017-12-08T00:22:18.667Z,42.80
2017-12-08T00:23:18.677Z,38.00
2017-12-08T00:24:18.630Z,36.30
2017-12-08T00:25:18.614Z,35.60
2017-12-08T00:26:18.603Z,34.50
2017-12-08T00:27:18.582Z,35.30
2017-12-08T00:28:18.624Z,32.80
2017-12-08T00:29:18.549Z,29.90
2017-12-08T00:30:18.539Z,30.10
2017-12-08T00:31:18.524Z,30.80
2017-12-08T00:32:18.506Z,34.60
2017-12-08T00:33:18.499Z,27.40
2017-12-08T00:34:18.543Z,29.10
2017-12-08T00:35:18.462Z,29.70
2017-12-08T00:36:18.453Z,27.50
2017-12-08T00:37:18.436Z,31.00
2017-12-08T00:38:18.418Z,26.90
2017-12-08T00:39:18.408Z,27.30
2017-12-08T00:40:18.416Z,31.90
2017-12-08T00:41:18.373Z,31.20
2017-12-08T00:42:18.384Z,24.40
2017-12-08T00:43:18.341Z,26.90
2017-12-08T00:44:18.335Z,30.20
2017-12-08T00:45:18.359Z,30.90
2017-12-08T00:46:18.299Z,26.70
2017-12-08T00:47:18.281Z,27.40
2017-12-08T00:48:18.274Z,28.40
2017-12-08T00:49:18.252Z,31.80
2017-12-08T00:50:18.302Z,25.60
2017-12-08T00:51:18.224Z,30.30
2017-12-08T00:52:18.211Z,28.40
2017-12-08T00:53:18.193Z,24.80
2017-12-08T00:54:18.177Z,23.50
2017-12-08T00:55:18.161Z,23.90
2017-12-08T00:56:18.178Z,27.50
2017-12-08T00:57:18.131Z,26.50
2017-12-08T00:58:18.113Z,23.70
2017-12-08T00:59:18.108Z,27.70
2017-12-08T01:00:18.095Z,26.20
2017-12-08T01:01:18.108Z,27.40
2017-12-08T01:02:18.057Z,22.70
2017-12-08T01:03:18.106Z,26.80
2017-12-08T01:04:18.029Z,26.10
2017-12-08T01:05:18.008Z,24.50
2017-12-08T01:06:17.994Z,24.70
2017-12-08T01:07:17.981Z,20.90
2017-12-08T01:08:17.965Z,28.30
2017-12-08T01:09:18.003Z,22.60
2017-12-08T01:10:17.936Z,25.10
2017-12-08T01:11:17.921Z,26.40
2017-12-08T01:12:17.901Z,23.80
2017-12-08T01:13:17.888Z,22.20
2017-12-08T01:14:17.871Z,29.00
2017-12-08T01:15:17.890Z,21.40
2017-12-08T01:16:17.839Z,26.40
2017-12-08T01:17:17.825Z,29.00
2017-12-08T01:18:17.811Z,25.30
2017-12-08T01:19:17.787Z,31.80
2017-12-08T01:20:17.825Z,25.50
2017-12-08T01:21:17.754Z,28.00
2017-12-08T01:22:17.751Z,33.50
2017-12-08T01:23:17.737Z,25.30
2017-12-08T01:24:17.722Z,28.20
2017-12-08T01:25:17.693Z,24.80
2017-12-08T01:26:17.720Z,23.90
2017-12-08T01:27:17.677Z,30.10
2017-12-08T01:28:17.674Z,29.50
2017-12-08T01:29:17.696Z,27.20
2017-12-08T01:30:17.621Z,29.70
2017-12-08T01:31:17.614Z,27.10
2017-12-08T01:32:17.600Z,29.50
2017-12-08T01:33:17.718Z,26.30
2017-12-08T01:34:17.559Z,31.00
2017-12-08T01:35:17.597Z,26.80
2017-12-08T01:36:17.523Z,22.30
2017-12-08T01:37:17.526Z,29.30
2017-12-08T01:38:17.506Z,26.30
2017-12-08T01:39:17.489Z,26.30
2017-12-08T01:40:17.472Z,25.90
2017-12-08T01:41:17.490Z,24.40
2017-12-08T01:42:17.476Z,29.40
2017-12-08T01:43:17.434Z,27.20
2017-12-08T01:44:17.472Z,27.00
2017-12-08T01:45:17.399Z,24.20
2017-12-08T01:46:17.371Z,30.50
2017-12-08T01:47:17.370Z,27.30
2017-12-08T01:48:17.361Z,27.80
2017-12-08T01:49:17.336Z,26.80
2017-12-08T01:50:17.371Z,26.60
2017-12-08T01:51:17.316Z,29.20
2017-12-08T01:52:17.291Z,29.00
2017-12-08T01:53:17.276Z,26.40
2017-12-08T01:54:17.260Z,27.10
2017-12-08T01:55:17.245Z,24.50
2017-12-08T01:56:17.272Z,23.60
2017-12-08T01:57:17.205Z,26.20
2017-12-08T01:58:17.202Z,29.60
2017-12-08T01:59:17.169Z,23.30
2017-12-08T02:00:17.165Z,26.80
2017-12-08T02:01:17.157Z,23.60
2017-12-08T02:02:17.187Z,24.00
2017-12-08T02:03:17.107Z,22.80
2017-12-08T02:04:17.129Z,23.40
2017-12-08T02:05:17.084Z,22.60
2017-12-08T02:06:17.071Z,22.50
2017-12-08T02:07:17.057Z,22.80
2017-12-08T02:08:17.097Z,25.70
2017-12-08T02:09:17.017Z,25.50
2017-12-08T02:10:17.002Z,24.70
2017-12-08T02:11:16.996Z,26.80
2017-12-08T02:12:16.969Z,23.70
2017-12-08T02:13:16.953Z,27.50
2017-12-08T02:14:16.976Z,28.10
2017-12-08T02:15:16.933Z,31.40
2017-12-08T02:16:16.908Z,24.90
2017-12-08T02:17:16.901Z,25.40
2017-12-08T02:18:16.869Z,25.30
2017-12-08T02:19:16.916Z,28.10
2017-12-08T02:20:16.849Z,22.70
2017-12-08T02:21:16.836Z,29.50
2017-12-08T02:22:16.822Z,27.80
2017-12-08T02:23:16.808Z,25.30
2017-12-08T02:24:16.804Z,25.80
2017-12-08T02:25:16.801Z,23.90
2017-12-08T02:26:16.748Z,28.40
2017-12-08T02:27:16.739Z,25.70
2017-12-08T02:28:16.729Z,21.70
2017-12-08T02:29:16.747Z,24.80
2017-12-08T02:30:16.690Z,23.50
2017-12-08T02:31:16.674Z,22.00
2017-12-08T02:32:16.661Z,26.50
2017-12-08T02:33:16.646Z,20.90
2017-12-08T02:34:16.688Z,27.50
2017-12-08T02:35:16.617Z,26.90
2017-12-08T02:36:16.594Z,26.50
2017-12-08T02:37:16.592Z,23.90
2017-12-08T02:38:16.559Z,25.60
2017-12-08T02:39:16.560Z,25.60
2017-12-08T02:40:16.618Z,27.00
2017-12-08T02:41:16.514Z,27.10
2017-12-08T02:42:16.505Z,22.80
2017-12-08T02:43:16.492Z,23.20
2017-12-08T02:44:16.466Z,24.10
2017-12-08T02:45:16.466Z,26.50
2017-12-08T02:46:16.501Z,24.30
2017-12-08T02:47:16.417Z,24.50
2017-12-08T02:48:16.407Z,28.40
2017-12-08T02:49:16.396Z,26.80
2017-12-08T02:50:16.385Z,30.00
2017-12-08T02:51:16.358Z,26.00
2017-12-08T02:52:16.398Z,27.60
2017-12-08T02:53:16.334Z,26.10
2017-12-08T02:54:16.311Z,28.70
2017-12-08T02:55:16.306Z,27.70
2017-12-08T02:56:16.272Z,26.30
2017-12-08T02:57:16.259Z,28.90
2017-12-08T02:58:16.326Z,28.40
2017-12-08T02:59:16.243Z,28.20
2017-12-08T03:00:16.224Z,23.40
2017-12-08T03:01:16.211Z,24.70
2017-12-08T03:02:16.187Z,27.30
2017-12-08T03:03:16.174Z,26.50
2017-12-08T03:04:16.188Z,25.00
2017-12-08T03:05:16.144Z,31.80
2017-12-08T03:06:16.114Z,20.80
2017-12-08T03:07:16.103Z,26.50
2017-12-08T03:08:16.083Z,26.90
2017-12-08T03:09:16.075Z,26.80
2017-12-08T03:10:16.080Z,28.10
2017-12-08T03:11:16.030Z,27.60
2017-12-08T03:12:16.023Z,27.70
2017-12-08T03:13:16.001Z,23.60
2017-12-08T03:14:15.991Z,27.20
2017-12-08T03:15:16.002Z,28.80
2017-12-08T03:16:15.964Z,27.80
2017-12-08T03:17:15.960Z,24.80
2017-12-08T03:18:15.933Z,22.50
2017-12-08T03:19:15.912Z,24.40
2017-12-08T03:20:15.969Z,28.10
2017-12-08T03:21:15.885Z,28.00
2017-12-08T03:22:15.872Z,25.50
2017-12-08T03:23:15.844Z,27.40
2017-12-08T03:24:15.826Z,25.80
2017-12-08T03:25:15.826Z,26.90
2017-12-08T03:26:15.863Z,27.30
2017-12-08T03:27:15.804Z,25.10
2017-12-08T03:28:15.767Z,23.00
2017-12-08T03:29:15.750Z,28.30
2017-12-08T03:30:15.750Z,29.30
2017-12-08T03:31:15.733Z,22.30
2017-12-08T03:32:15.780Z,27.20
2017-12-08T03:33:15.685Z,26.10
2017-12-08T03:34:15.671Z,24.60
2017-12-08T03:35:15.671Z,26.50
2017-12-08T03:36:15.654Z,28.60
2017-12-08T03:37:15.632Z,28.80
2017-12-08T03:38:15.650Z,26.30
2017-12-08T03:39:15.592Z,30.00
2017-12-08T03:40:15.579Z,24.90
2017-12-08T03:41:15.570Z,25.00
2017-12-08T03:42:15.552Z,26.00
2017-12-08T03:43:15.579Z,24.20
2017-12-08T03:44:15.530Z,25.30
2017-12-08T03:45:15.504Z,25.30
2017-12-08T03:46:15.485Z,24.80
2017-12-08T03:47:15.528Z,25.40
2017-12-08T03:48:15.446Z,22.60
2017-12-08T03:49:15.441Z,23.80
2017-12-08T03:50:15.426Z,24.40
2017-12-08T03:51:15.425Z,22.90
2017-12-08T03:52:15.391Z,23.10
2017-12-08T03:53:15.439Z,27.10
2017-12-08T03:54:15.350Z,25.90
2017-12-08T03:55:15.351Z,21.80
2017-12-08T03:56:15.314Z,26.20
2017-12-08T03:57:15.311Z,22.10
2017-12-08T03:58:15.295Z,27.10
2017-12-08T03:59:15.329Z,28.00
2017-12-08T04:00:15.263Z,24.70
2017-12-08T04:01:15.248Z,25.50
2017-12-08T04:02:15.230Z,29.30
2017-12-08T04:03:15.220Z,25.00
2017-12-08T04:04:15.185Z,24.60
2017-12-08T04:05:15.201Z,23.00
2017-12-08T04:06:15.155Z,23.80
2017-12-08T04:07:15.155Z,21.40
2017-12-08T04:08:15.122Z,29.20
2017-12-08T04:09:15.109Z,25.40
2017-12-08T04:10:15.125Z,20.80
2017-12-08T04:11:15.122Z,22.20
2017-12-08T04:12:15.069Z,25.10
2017-12-08T04:13:15.050Z,24.20
2017-12-08T04:14:15.044Z,19.50
2017-12-08T04:15:15.021Z,23.20
2017-12-08T04:16:15.071Z,24.80
2017-12-08T04:17:14.988Z,27.60
2017-12-08T04:18:14.963Z,18.40
2017-12-08T04:19:14.952Z,18.00
2017-12-08T04:20:14.932Z,23.10
2017-12-08T04:21:14.927Z,21.30
2017-12-08T04:22:14.935Z,26.40
2017-12-08T04:23:14.882Z,23.40
2017-12-08T04:24:14.928Z,21.20
2017-12-08T04:25:14.849Z,23.30
2017-12-08T04:26:14.842Z,18.00
2017-12-08T04:27:14.836Z,21.90
2017-12-08T04:28:14.812Z,22.00
2017-12-08T04:29:14.795Z,27.10
2017-12-08T04:30:14.815Z,18.60
2017-12-08T04:31:14.755Z,21.30
2017-12-08T04:32:14.744Z,26.60
2017-12-08T04:33:14.721Z,25.10
2017-12-08T04:34:14.700Z,21.30
2017-12-08T04:35:14.690Z,24.00
2017-12-08T04:36:14.752Z,21.90
2017-12-08T04:37:14.651Z,25.60
2017-12-08T04:38:14.662Z,21.50
2017-12-08T04:39:14.624Z,17.00
2017-12-08T04:40:15.207Z,20.40
2017-12-08T04:41:14.616Z,17.50
2017-12-08T04:42:14.642Z,22.00
2017-12-08T04:43:14.646Z,22.20
2017-12-08T04:44:14.565Z,18.90
2017-12-08T04:45:14.533Z,25.10
2017-12-08T04:46:14.506Z,21.20
2017-12-08T04:47:14.504Z,23.70
2017-12-08T04:48:14.487Z,16.20
2017-12-08T04:49:14.512Z,22.20
2017-12-08T04:50:14.441Z,18.70
2017-12-08T04:51:14.428Z,18.30
2017-12-08T04:52:14.410Z,19.30
2017-12-08T04:53:14.436Z,19.60
2017-12-08T04:54:14.390Z,20.40
2017-12-08T04:55:14.386Z,21.70
2017-12-08T04:56:14.415Z,20.50
2017-12-08T04:57:14.333Z,20.80
2017-12-08T04:58:14.317Z,20.30
2017-12-08T04:59:14.307Z,15.50
2017-12-08T05:00:14.300Z,21.40
2017-12-08T05:01:14.289Z,18.10
2017-12-08T05:02:14.316Z,19.90
2017-12-08T05:03:14.228Z,19.50
2017-12-08T05:04:14.226Z,18.50
2017-12-08T05:05:14.208Z,20.00
2017-12-08T05:06:14.200Z,22.50
2017-12-08T05:07:14.187Z,21.60
2017-12-08T05:08:14.197Z,17.40
2017-12-08T05:09:14.152Z,18.50
2017-12-08T05:10:14.149Z,15.20
2017-12-08T05:11:14.105Z,13.20
2017-12-08T05:12:14.101Z,13.30
2017-12-08T05:13:14.197Z,14.30
2017-12-08T05:14:14.066Z,9.90
2017-12-08T05:15:14.059Z,11.30
2017-12-08T05:16:14.029Z,7.70
2017-12-08T05:17:14.011Z,10.40
2017-12-08T05:18:14.014Z,8.20
2017-12-08T05:19:13.984Z,7.70
2017-12-08T05:20:13.946Z,5.30
2017-12-08T05:21:13.940Z,7.60
2017-12-08T05:22:13.939Z,6.30
2017-12-08T05:23:13.926Z,6.80
2017-12-08T05:24:13.905Z,8.50
2017-12-08T05:25:13.893Z,7.60
2017-12-08T05:26:13.868Z,8.10
2017-12-08T05:27:13.922Z,6.00
2017-12-08T05:28:13.883Z,7.80
2017-12-08T05:29:13.821Z,10.50
2017-12-08T05:30:13.815Z,8.40
2017-12-08T05:31:15.983Z,9.40
2017-12-08T05:32:13.750Z,8.60
2017-12-08T05:33:13.731Z,6.40
2017-12-08T05:34:13.776Z,8.50
2017-12-08T05:35:13.711Z,8.20
2017-12-08T05:36:13.704Z,13.10
2017-12-08T05:37:13.681Z,8.70
2017-12-08T05:38:13.676Z,10.40
2017-12-08T05:39:13.639Z,10.30
2017-12-08T05:40:13.633Z,9.40
2017-12-08T05:41:13.811Z,9.90
2017-12-08T05:42:13.635Z,10.40
2017-12-08T05:43:13.598Z,10.70
2017-12-08T05:44:13.545Z,11.70
2017-12-08T05:45:13.585Z,9.60
2017-12-08T05:46:13.502Z,10.60
2017-12-08T05:47:13.513Z,14.20
2017-12-08T05:48:13.477Z,11.80
2017-12-08T05:49:13.466Z,10.90
2017-12-08T05:50:13.451Z,13.20
2017-12-08T05:51:13.495Z,18.00
2017-12-08T05:52:13.400Z,13.50
2017-12-08T05:53:13.389Z,14.40
2017-12-08T05:54:13.374Z,14.60
2017-12-08T05:55:13.356Z,17.60
2017-12-08T05:56:13.336Z,17.80
2017-12-08T05:57:13.393Z,16.00
2017-12-08T05:58:13.314Z,16.50
2017-12-08T05:59:13.314Z,15.40
2017-12-08T06:00:13.281Z,18.00
2017-12-08T06:01:13.256Z,14.90
2017-12-08T06:02:13.244Z,15.10
2017-12-08T06:03:13.280Z,18.00
2017-12-08T06:04:13.227Z,14.50
2017-12-08T06:05:13.195Z,17.40
2017-12-08T06:06:13.172Z,17.70
2017-12-08T06:07:13.143Z,20.30
2017-12-08T06:08:13.182Z,16.70
2017-12-08T06:09:13.191Z,17.60
2017-12-08T06:10:13.118Z,17.00
2017-12-08T06:11:13.091Z,18.80
2017-12-08T06:12:13.060Z,18.70
2017-12-08T06:13:14.168Z,15.00
2017-12-08T06:14:13.035Z,14.90
2017-12-08T06:15:13.090Z,16.40
2017-12-08T06:16:12.994Z,17.80
2017-12-08T06:17:12.979Z,15.10
2017-12-08T06:18:12.977Z,17.80
2017-12-08T06:19:12.952Z,17.80
2017-12-08T06:20:12.944Z,19.10
2017-12-08T06:21:12.934Z,19.10
2017-12-08T06:22:12.908Z,19.40
2017-12-08T06:23:12.884Z,15.90
2017-12-08T06:24:12.860Z,15.80
2017-12-08T06:25:12.847Z,15.50
2017-12-08T06:26:12.859Z,15.10
2017-12-08T06:27:12.817Z,16.00
2017-12-08T06:28:12.799Z,15.80
2017-12-08T06:29:12.832Z,21.60
2017-12-08T06:30:12.768Z,19.40
2017-12-08T06:31:12.775Z,16.40
2017-12-08T06:32:12.719Z,14.80
2017-12-08T06:33:12.730Z,16.50
2017-12-08T06:34:12.683Z,19.10
2017-12-08T06:35:12.728Z,17.50
2017-12-08T06:36:12.851Z,18.90
2017-12-08T06:37:12.664Z,16.10
2017-12-08T06:38:12.631Z,16.40
2017-12-08T06:39:12.643Z,16.90
2017-12-08T06:40:12.606Z,16.50
2017-12-08T06:41:12.569Z,17.00
2017-12-08T06:42:12.603Z,16.90
2017-12-08T06:43:12.653Z,17.50
2017-12-08T06:44:12.535Z,16.10
2017-12-08T06:45:12.523Z,13.60
2017-12-08T06:46:12.495Z,17.40
2017-12-08T06:47:12.525Z,15.40
2017-12-08T06:48:12.469Z,16.80
2017-12-08T06:49:12.497Z,17.90
2017-12-08T06:50:12.418Z,18.20
2017-12-08T06:51:12.411Z,15.30
2017-12-08T06:52:12.411Z,15.50
2017-12-08T06:53:12.394Z,16.60
2017-12-08T06:54:12.366Z,17.40
2017-12-08T06:55:12.469Z,15.20
2017-12-08T06:56:12.346Z,19.40
2017-12-08T06:57:12.302Z,13.10
2017-12-08T06:58:12.272Z,16.10
2017-12-08T06:59:12.263Z,18.50
2017-12-08T07:00:12.239Z,13.00
2017-12-08T07:01:12.279Z,16.00
2017-12-08T07:02:12.221Z,18.00
2017-12-08T07:03:12.201Z,13.90
2017-12-08T07:04:12.227Z,15.00
2017-12-08T07:05:12.179Z,14.00
2017-12-08T07:06:12.158Z,16.10
2017-12-08T07:07:12.225Z,16.70
2017-12-08T07:08:12.110Z,14.00
2017-12-08T07:09:12.138Z,13.20
2017-12-08T07:10:12.085Z,17.30
2017-12-08T07:11:12.096Z,17.00
2017-12-08T07:12:12.061Z,12.50
2017-12-08T07:13:12.026Z,14.30
2017-12-08T07:14:12.035Z,15.40
2017-12-08T07:15:11.995Z,18.70
2017-12-08T07:16:11.993Z,14.80
2017-12-08T07:17:11.992Z,13.80
2017-12-08T07:18:11.979Z,15.40
2017-12-08T07:19:12.003Z,14.80
2017-12-08T07:20:11.926Z,13.50
2017-12-08T07:21:11.910Z,12.50
2017-12-08T07:22:11.876Z,16.90
2017-12-08T07:23:11.868Z,12.40
2017-12-08T07:24:11.850Z,13.00
2017-12-08T07:25:11.898Z,15.50
2017-12-08T07:26:11.812Z,13.80
2017-12-08T07:27:11.835Z,16.00
2017-12-08T07:28:11.780Z,17.20
2017-12-08T07:29:11.768Z,15.30
2017-12-08T07:30:11.752Z,17.80
2017-12-08T07:31:11.784Z,15.30
2017-12-08T07:32:11.694Z,12.20
2017-12-08T07:33:11.701Z,14.10
2017-12-08T07:34:11.681Z,14.10
2017-12-08T07:35:11.672Z,13.10
2017-12-08T07:36:11.644Z,14.40
2017-12-08T07:37:11.655Z,12.60
2017-12-08T07:38:11.634Z,15.80
2017-12-08T07:39:11.623Z,15.30
2017-12-08T07:40:11.586Z,16.70
2017-12-08T07:41:11.591Z,14.80
2017-12-08T07:42:11.548Z,11.60
2017-12-08T07:43:11.793Z,16.60
2017-12-08T07:44:11.508Z,12.50
2017-12-08T07:45:11.478Z,14.80
2017-12-08T07:46:11.489Z,14.50
2017-12-08T07:47:11.445Z,11.70
2017-12-08T07:48:11.435Z,16.90
2017-12-08T07:49:11.441Z,18.30
2017-12-08T07:50:11.882Z,16.40
2017-12-08T07:51:12.499Z,11.80
2017-12-08T07:52:12.106Z,20.20
2017-12-08T07:53:11.358Z,16.10
2017-12-08T07:54:11.349Z,15.90
2017-12-08T07:55:11.321Z,14.90
2017-12-08T07:56:11.300Z,16.20
2017-12-08T07:57:11.341Z,13.80
2017-12-08T07:58:11.274Z,14.10
2017-12-08T07:59:11.250Z,13.50
2017-12-08T08:00:11.246Z,14.90
2017-12-08T08:01:11.208Z,14.90
2017-12-08T08:02:11.207Z,13.30
2017-12-08T08:03:11.214Z,13.90
2017-12-08T08:04:11.222Z,13.20
2017-12-08T08:05:11.133Z,14.80
2017-12-08T08:06:11.126Z,13.30
2017-12-08T08:07:11.108Z,13.70
2017-12-08T08:08:11.122Z,15.90
2017-12-08T08:09:11.089Z,16.40
2017-12-08T08:10:11.074Z,14.40
2017-12-08T08:11:11.051Z,14.60
2017-12-08T08:12:11.023Z,13.40
2017-12-08T08:13:11.386Z,10.80
2017-12-08T08:14:10.992Z,13.50
2017-12-08T08:15:10.984Z,16.20
2017-12-08T08:16:10.972Z,12.80
2017-12-08T08:17:10.932Z,14.70
2017-12-08T08:18:10.932Z,13.90
2017-12-08T08:19:10.960Z,14.00
2017-12-08T08:20:10.886Z,12.10
2017-12-08T08:21:10.861Z,12.60
2017-12-08T08:22:10.846Z,16.60
2017-12-08T08:23:10.845Z,12.80
2017-12-08T08:24:10.815Z,13.60
2017-12-08T08:25:10.877Z,12.10
2017-12-08T08:26:10.773Z,16.70
2017-12-08T08:27:10.782Z,15.50
2017-12-08T08:28:10.739Z,12.20
2017-12-08T08:29:10.739Z,13.80
2017-12-08T08:30:10.721Z,13.00
2017-12-08T08:31:10.731Z,13.80
2017-12-08T08:32:10.693Z,14.00
2017-12-08T08:33:10.673Z,15.50
2017-12-08T08:34:10.653Z,15.70
2017-12-08T08:35:10.638Z,13.30
2017-12-08T08:36:10.684Z,15.30
2017-12-08T08:37:10.603Z,14.20
2017-12-08T08:38:10.582Z,10.80
2017-12-08T08:39:10.571Z,13.50
2017-12-08T08:40:10.566Z,15.30
2017-12-08T08:41:10.540Z,16.80
2017-12-08T08:42:10.569Z,13.10
2017-12-08T08:43:10.629Z,14.30
2017-12-08T08:44:10.483Z,14.10
2017-12-08T08:45:10.472Z,13.80
2017-12-08T08:46:10.450Z,13.70
2017-12-08T08:47:10.441Z,12.50
2017-12-08T08:48:10.478Z,12.70
2017-12-08T08:49:10.398Z,14.80
2017-12-08T08:50:10.372Z,13.50
2017-12-08T08:51:10.368Z,15.70
2017-12-08T08:52:10.332Z,13.50
2017-12-08T08:53:10.341Z,15.40
2017-12-08T08:54:10.345Z,11.60
2017-12-08T08:55:10.304Z,14.50
2017-12-08T08:56:10.297Z,14.50
2017-12-08T08:57:10.341Z,11.20
2017-12-08T08:58:10.268Z,14.40
2017-12-08T08:59:10.233Z,14.70
2017-12-08T09:00:10.228Z,11.80
2017-12-08T09:01:10.188Z,15.40
2017-12-08T09:02:10.182Z,15.60
2017-12-08T09:03:10.193Z,13.30
2017-12-08T09:04:10.210Z,15.90
2017-12-08T09:05:10.132Z,13.00
2017-12-08T09:06:10.732Z,17.10
2017-12-08T09:07:10.120Z,12.60
2017-12-08T09:08:10.084Z,11.70
2017-12-08T09:09:10.060Z,12.80
2017-12-08T09:10:10.070Z,15.80
2017-12-08T09:11:10.028Z,14.10
2017-12-08T09:12:10.068Z,14.00
2017-12-08T09:13:09.987Z,15.40
2017-12-08T09:14:09.968Z,13.50
2017-12-08T09:15:09.976Z,17.80
2017-12-08T09:16:09.960Z,13.60
2017-12-08T09:17:09.993Z,12.50
2017-12-08T09:18:09.902Z,13.60
2017-12-08T09:19:09.883Z,15.60
2017-12-08T09:20:09.896Z,13.60
2017-12-08T09:21:09.862Z,10.60
2017-12-08T09:22:09.847Z,12.20
2017-12-08T09:23:09.885Z,10.90
2017-12-08T09:24:09.817Z,12.40
2017-12-08T09:25:09.781Z,12.10
2017-12-08T09:26:09.784Z,14.50
2017-12-08T09:27:09.772Z,15.10
2017-12-08T09:28:09.727Z,11.50
2017-12-08T09:29:09.797Z,9.60
2017-12-08T09:30:09.712Z,13.10
2017-12-08T09:31:09.688Z,11.40
2017-12-08T09:32:09.711Z,12.50
2017-12-08T09:33:09.676Z,13.20
2017-12-08T09:34:09.634Z,12.30
2017-12-08T09:35:09.691Z,11.20
2017-12-08T09:36:09.600Z,11.80
2017-12-08T09:37:09.585Z,10.10
2017-12-08T09:38:09.563Z,11.60
2017-12-08T09:39:09.556Z,14.00
2017-12-08T09:40:09.541Z,11.40
2017-12-08T09:41:09.647Z,12.00
2017-12-08T09:42:09.509Z,12.50
2017-12-08T09:43:09.496Z,9.30
2017-12-08T09:44:09.484Z,12.00
2017-12-08T09:45:09.454Z,11.20
2017-12-08T09:46:09.459Z,12.40
2017-12-08T09:47:09.465Z,10.90
2017-12-08T09:48:09.414Z,12.80
2017-12-08T09:49:09.433Z,11.80
2017-12-08T09:50:09.376Z,9.70
2017-12-08T09:51:09.349Z,10.50
2017-12-08T09:52:09.328Z,11.10
2017-12-08T09:53:09.501Z,9.90
2017-12-08T09:54:09.346Z,11.50
2017-12-08T09:55:09.289Z,10.40
2017-12-08T09:56:09.270Z,16.30
2017-12-08T09:57:09.261Z,12.10
2017-12-08T09:58:09.242Z,10.60
2017-12-08T09:59:09.221Z,14.20
2017-12-08T10:00:09.274Z,12.60
2017-12-08T10:01:09.204Z,11.00
2017-12-08T10:02:09.162Z,11.60
2017-12-08T10:03:09.147Z,11.60
2017-12-08T10:04:09.146Z,12.10
2017-12-08T10:05:09.118Z,14.30
2017-12-08T10:06:09.169Z,13.10
2017-12-08T10:07:09.089Z,14.40
2017-12-08T10:08:09.063Z,11.10
2017-12-08T10:09:09.065Z,14.00
2017-12-08T10:10:09.052Z,14.10
2017-12-08T10:11:09.017Z,13.50
2017-12-08T10:12:09.071Z,14.00
2017-12-08T10:13:08.978Z,12.70
2017-12-08T10:14:08.978Z,14.60
2017-12-08T10:15:08.954Z,15.10
2017-12-08T10:16:08.929Z,13.90
2017-12-08T10:17:08.912Z,13.10
2017-12-08T10:18:08.972Z,13.40
2017-12-08T10:19:08.880Z,14.10
2017-12-08T10:20:08.860Z,13.10
2017-12-08T10:21:08.837Z,15.30
2017-12-08T10:22:08.834Z,16.40
2017-12-08T10:23:08.818Z,13.10
2017-12-08T10:24:08.858Z,13.80
2017-12-08T10:25:08.775Z,13.90
2017-12-08T10:26:08.776Z,14.80
2017-12-08T10:27:08.748Z,11.20
2017-12-08T10:28:08.737Z,15.20
2017-12-08T10:29:08.716Z,14.20
2017-12-08T10:30:08.763Z,17.90
2017-12-08T10:31:08.687Z,16.50
2017-12-08T10:32:08.650Z,16.70
2017-12-08T10:33:08.648Z,16.10
2017-12-08T10:34:08.647Z,16.50
2017-12-08T10:35:08.618Z,14.50
2017-12-08T10:36:08.669Z,11.30
2017-12-08T10:37:08.569Z,14.00
2017-12-08T10:38:08.552Z,16.20
2017-12-08T10:39:08.553Z,17.60
2017-12-08T10:40:08.520Z,14.20
2017-12-08T10:41:08.508Z,13.70
2017-12-08T10:42:08.552Z,14.00
2017-12-08T10:43:08.476Z,17.20
2017-12-08T10:44:08.460Z,16.70
2017-12-08T10:45:08.430Z,17.70
2017-12-08T10:46:08.425Z,17.60
2017-12-08T10:47:08.414Z,13.70
2017-12-08T10:48:08.470Z,15.30
2017-12-08T10:49:08.380Z,14.40
2017-12-08T10:50:08.356Z,20.20
2017-12-08T10:51:08.339Z,17.20
2017-12-08T10:52:08.332Z,16.80
2017-12-08T10:53:08.395Z,15.20
2017-12-08T10:54:08.311Z,14.60
2017-12-08T10:55:08.305Z,14.10
2017-12-08T10:56:08.269Z,16.00
2017-12-08T10:57:08.222Z,15.20
2017-12-08T10:58:08.216Z,13.70
2017-12-08T10:59:08.202Z,13.50
2017-12-08T11:00:08.245Z,13.10
2017-12-08T11:01:08.177Z,14.10
2017-12-08T11:02:08.139Z,11.90
2017-12-08T11:03:08.132Z,13.80
2017-12-08T11:04:08.118Z,14.00
2017-12-08T11:05:08.106Z,15.60
2017-12-08T11:06:08.128Z,17.50
2017-12-08T11:07:08.058Z,11.90
2017-12-08T11:08:08.047Z,12.90
2017-12-08T11:09:08.037Z,14.00
2017-12-08T11:10:08.017Z,13.80
2017-12-08T11:11:08.061Z,10.90
2017-12-08T11:12:07.971Z,12.60
2017-12-08T11:13:07.964Z,12.10
2017-12-08T11:14:07.935Z,11.60
2017-12-08T11:15:07.933Z,13.50
2017-12-08T11:16:07.930Z,13.50
2017-12-08T11:17:07.959Z,12.10
2017-12-08T11:18:07.895Z,13.70
2017-12-08T11:19:07.876Z,15.30
2017-12-08T11:20:07.856Z,13.80
2017-12-08T11:21:07.834Z,11.90
2017-12-08T11:22:07.839Z,14.30
2017-12-08T11:23:07.869Z,14.50
2017-12-08T11:24:07.775Z,13.10
2017-12-08T11:25:07.759Z,11.30
2017-12-08T11:27:44.574Z,11.20
2017-12-08T11:28:44.550Z,10.20
2017-12-08T11:29:44.477Z,10.80
2017-12-08T11:30:44.399Z,12.40
2017-12-08T11:31:45.653Z,11.20
2017-12-08T11:32:45.798Z,11.20
2017-12-08T11:33:45.639Z,10.30
2017-12-08T11:34:45.445Z,9.90
2017-12-08T11:35:45.130Z,10.20
2017-12-08T11:36:44.313Z,9.40
2017-12-08T11:37:44.347Z,9.30
2017-12-08T11:38:44.298Z,9.90
2017-12-08T11:39:44.268Z,13.10
2017-12-08T11:40:44.240Z,12.10
2017-12-08T11:41:44.219Z,10.60
2017-12-08T11:42:44.229Z,11.00
2017-12-08T11:43:44.234Z,10.80
2017-12-08T11:44:44.214Z,12.90
2017-12-08T11:45:44.201Z,11.10
2017-12-08T11:46:44.293Z,9.80
2017-12-08T11:47:44.133Z,12.30
2017-12-08T11:48:44.129Z,9.20
2017-12-08T11:49:44.082Z,10.60
2017-12-08T11:50:44.080Z,10.30
2017-12-08T11:51:44.057Z,10.10
2017-12-08T11:52:44.215Z,8.40
2017-12-08T11:53:44.018Z,9.00
2017-12-08T11:54:44.009Z,9.80
2017-12-08T11:55:43.991Z,11.30
2017-12-08T11:56:43.968Z,9.40
2017-12-08T11:57:43.951Z,10.80
2017-12-08T11:58:43.988Z,9.50
2017-12-08T11:59:43.941Z,9.30
2017-12-08T12:00:43.910Z,8.20
2017-12-08T12:01:43.905Z,9.50
2017-12-08T12:02:43.885Z,10.70
2017-12-08T12:03:43.907Z,10.50
2017-12-08T12:04:43.840Z,9.30
2017-12-08T12:05:43.817Z,9.20
2017-12-08T12:06:43.797Z,10.30
2017-12-08T12:07:43.796Z,9.90
2017-12-08T12:08:43.778Z,10.50
2017-12-08T12:09:44.803Z,9.90
2017-12-08T12:10:43.719Z,13.10
2017-12-08T12:11:43.739Z,11.50
2017-12-08T12:12:43.695Z,11.50
2017-12-08T12:13:43.699Z,11.50
2017-12-08T12:14:43.680Z,11.60
2017-12-08T12:15:43.702Z,12.10
2017-12-08T12:16:43.636Z,12.90
2017-12-08T12:17:43.620Z,14.90
2017-12-08T12:18:43.590Z,13.10
2017-12-08T12:19:43.590Z,12.80
2017-12-08T12:20:43.557Z,14.80
2017-12-08T12:21:43.589Z,14.00
2017-12-08T12:22:43.521Z,14.40
2017-12-08T12:23:43.542Z,12.90
2017-12-08T12:24:43.504Z,17.10
2017-12-08T12:25:43.508Z,14.50
2017-12-08T12:26:43.454Z,16.10
2017-12-08T12:27:43.452Z,13.60
2017-12-08T12:28:43.508Z,17.40
2017-12-08T12:29:43.407Z,15.80
2017-12-08T12:30:43.414Z,14.20
2017-12-08T12:31:43.380Z,14.90
2017-12-08T12:32:43.358Z,16.20
2017-12-08T12:33:44.355Z,16.70
2017-12-08T12:34:43.384Z,16.90
2017-12-08T12:35:43.302Z,15.40
2017-12-08T12:36:43.303Z,12.00
2017-12-08T12:37:43.265Z,15.00
2017-12-08T12:38:43.256Z,14.00
2017-12-08T12:39:43.240Z,13.40
2017-12-08T12:40:43.248Z,14.80
2017-12-08T12:41:43.220Z,14.90
2017-12-08T12:42:43.169Z,13.30
2017-12-08T12:43:43.160Z,13.80
2017-12-08T12:44:43.137Z,14.20
2017-12-08T12:45:43.127Z,12.30
2017-12-08T12:46:43.147Z,15.50
2017-12-08T12:47:43.096Z,17.50
2017-12-08T12:48:43.079Z,17.40
2017-12-08T12:49:43.045Z,14.20
2017-12-08T12:50:43.719Z,14.70
2017-12-08T12:51:43.067Z,14.40
2017-12-08T12:52:43.005Z,15.30
2017-12-08T12:53:42.978Z,18.80
2017-12-08T12:54:42.970Z,14.70
2017-12-08T12:55:43.000Z,17.40